Time;durP1;ratioP1;P1;durP2;ratioP2;P2;SDS_P1;SDS_P2;PMS_P1;PMS_P2;Temp;Humidity;BMP_temperature;BMP_pressure;BME280_temperature;BME280_humidity;BME280_pressure;Samples;Min_cycle;Max_cycle;Signal;HPM_P1;HPM_P2
2021/06/01 04:56:54;;;;;;;2.05;1.85;;;;;;;19.31;42.97;100412.66;1843559;76;22018;-69
2021/06/01 04:59:21;;;;;;;8.88;2.30;;;;;;;19.11;43.59;100408.76;1844203;77;20865;-68
2021/06/01 05:01:48;;;;;;;4.58;1.77;;;;;;;19.01;44.75;100403.91;1828734;77;21116;-70
2021/06/01 05:04:15;;;;;;;4.08;1.95;;;;;;;19.30;44.22;100407.02;1845433;77;20984;-69
2021/06/01 05:06:45;;;;;;;3.25;2.08;;;;;;;19.66;42.23;100407.45;1839642;77;20955;-68
2021/06/01 05:09:12;;;;;;;4.62;2.50;;;;;;;19.69;41.50;100409.82;1845693;77;20900;-69
2021/06/01 05:11:40;;;;;;;3.00;1.90;;;;;;;19.53;41.74;100422.72;1847422;77;21569;-69
2021/06/01 05:14:11;;;;;;;3.95;2.70;;;;;;;19.31;42.14;100407.38;1830924;77;21281;-69
2021/06/01 05:16:38;;;;;;;8.43;2.37;;;;;;;19.22;43.10;100408.16;1824439;77;21053;-69
2021/06/01 05:19:07;;;;;;;4.35;2.30;;;;;;;19.35;42.63;100409.27;1835749;77;20971;-69
2021/06/01 05:21:34;;;;;;;2.92;2.10;;;;;;;19.42;43.19;100413.05;1832826;77;20932;-68
2021/06/01 05:24:01;;;;;;;2.70;2.15;;;;;;;19.53;42.69;100413.48;1787804;79;20999;-69
2021/06/01 05:26:28;;;;;;;2.60;2.40;;;;;;;19.70;41.62;100418.58;1839085;77;21033;-69
2021/06/01 05:28:55;;;;;;;2.50;1.90;;;;;;;19.65;41.26;100404.45;1793287;79;20973;-69
2021/06/01 05:32:08;;;;;;;2.90;1.72;;;;;;;19.45;41.90;100406.67;1827331;77;20972;-69
2021/06/01 05:34:02;;;;;;;3.55;2.10;;;;;;;19.30;42.02;100417.59;1804460;77;21296;-69
2021/06/01 05:36:28;;;;;;;2.65;2.08;;;;;;;19.27;42.84;100415.20;1838603;77;20991;-69
2021/06/01 05:39:05;;;;;;;3.22;2.20;;;;;;;19.47;41.91;100412.17;1828535;77;21036;-71
2021/06/01 05:41:27;;;;;;;2.35;2.02;;;;;;;19.63;41.48;100411.67;1834103;77;20917;-70
2021/06/01 05:43:55;;;;;;;2.92;1.92;;;;;;;19.82;41.60;100406.94;1830284;77;21008;-70
2021/06/01 05:46:22;;;;;;;4.58;2.00;;;;;;;20.12;40.40;100416.57;1842903;77;21035;-69
2021/06/01 05:48:49;;;;;;;2.17;1.85;;;;;;;20.16;39.83;100412.19;1833742;77;21018;-70
2021/06/01 05:51:18;;;;;;;2.02;1.85;;;;;;;19.93;39.78;100410.30;1789555;79;21045;-69
2021/06/01 05:53:45;;;;;;;6.75;2.58;;;;;;;19.65;40.37;100412.38;1788433;79;21553;-69
2021/06/01 05:56:13;;;;;;;3.42;2.08;;;;;;;19.46;40.90;100421.55;1820549;77;20972;-69
2021/06/01 05:58:40;;;;;;;7.17;1.90;;;;;;;19.31;39.58;100421.90;1809436;79;20996;-69
2021/06/01 06:01:07;;;;;;;3.30;2.00;;;;;;;19.18;40.15;100418.66;1815060;77;20996;-71
2021/06/01 06:03:36;;;;;;;4.78;1.77;;;;;;;19.16;40.57;100405.24;1810824;78;21409;-70
2021/06/01 06:06:12;;;;;;;4.00;2.22;;;;;;;19.35;40.78;100409.27;1815023;77;20917;-69
2021/06/01 06:08:37;;;;;;;4.45;1.67;;;;;;;19.59;39.94;100404.50;1815172;77;20957;-70
2021/06/01 06:11:05;;;;;;;8.10;2.85;;;;;;;19.86;39.40;100408.34;1827597;77;20909;-69
2021/06/01 06:13:34;;;;;;;8.50;3.17;;;;;;;20.02;38.92;100415.72;1821222;77;20905;-69
2021/06/01 06:16:01;;;;;;;4.47;1.98;;;;;;;20.05;38.48;100409.67;1826580;77;22010;-70
2021/06/01 06:18:38;;;;;;;7.15;1.90;;;;;;;20.02;38.00;100408.62;1810184;77;20942;-69
2021/06/01 06:21:10;;;;;;;7.75;2.22;;;;;;;20.08;38.57;100405.43;1810134;79;20925;-69
2021/06/01 06:23:40;;;;;;;1.57;1.37;;;;;;;20.40;38.67;100414.92;1820860;77;21562;-68
2021/06/01 06:26:10;;;;;;;1.82;1.72;;;;;;;20.59;35.84;100409.15;1810997;77;20945;-69
2021/06/01 06:28:39;;;;;;;4.87;1.75;;;;;;;20.45;35.94;100414.02;1811925;77;21464;-69
2021/06/01 06:31:08;;;;;;;2.72;1.42;;;;;;;20.17;36.59;100418.31;1834319;77;21058;-68
2021/06/01 06:33:38;;;;;;;3.77;1.95;;;;;;;19.99;37.63;100408.41;1831586;77;21266;-68
2021/06/01 06:36:07;;;;;;;5.90;1.92;;;;;;;19.99;37.21;100412.38;1815854;77;21008;-68
2021/06/01 06:38:34;;;;;;;2.98;1.67;;;;;;;20.02;37.41;100420.52;1839328;77;20980;-67
2021/06/01 06:41:14;;;;;;;3.98;2.00;;;;;;;20.05;37.36;100424.21;1808212;79;21462;-69
2021/06/01 06:43:51;;;;;;;3.17;1.90;;;;;;;20.11;36.82;100432.09;1780209;79;20985;-70
2021/06/01 06:46:27;;;;;;;5.00;1.75;;;;;;;20.03;36.65;100412.10;1769221;81;20953;-69
2021/06/01 06:48:54;;;;;;;3.25;2.10;;;;;;;19.92;36.99;100412.59;1768009;81;21580;-69
2021/06/01 06:51:24;;;;;;;6.67;2.10;;;;;;;19.97;35.95;100412.19;1786451;79;20949;-69
2021/06/01 06:56:19;;;;;;;5.05;1.75;;;;;;;19.98;35.15;100415.19;1822403;77;21003;-69
2021/06/01 06:58:46;;;;;;;2.00;1.85;;;;;;;19.95;36.57;100416.30;1824372;77;20928;-67
2021/06/01 07:01:14;;;;;;;3.30;1.87;;;;;;;20.14;36.83;100411.50;1829561;77;20882;-69
2021/06/01 07:03:41;;;;;;;4.42;3.90;;;;;;;20.46;36.30;100409.92;1819972;77;20958;-69
2021/06/01 07:06:08;;;;;;;2.52;1.62;;;;;;;20.60;35.88;100417.92;1831310;77;21022;-70
2021/06/01 07:08:38;;;;;;;7.47;1.90;;;;;;;20.76;35.60;100411.57;1825546;77;21563;-69
2021/06/01 07:11:06;;;;;;;5.17;2.10;;;;;;;20.67;35.42;100412.91;1829289;77;20916;-69
2021/06/01 07:13:48;;;;;;;2.52;1.85;;;;;;;20.43;36.23;100422.59;1791419;79;20956;-69
2021/06/01 07:16:16;;;;;;;2.72;2.08;;;;;;;20.37;34.77;100421.81;1823234;77;20869;-70
2021/06/01 07:18:46;;;;;;;3.42;1.80;;;;;;;19.88;34.66;100410.36;1791469;79;21434;-68
2021/06/01 07:21:14;;;;;;;2.45;1.72;;;;;;;19.36;35.66;100406.14;1787714;79;20900;-68
2021/06/01 07:23:41;;;;;;;2.55;1.80;;;;;;;19.14;36.09;100425.66;1790400;79;20932;-68
2021/06/01 07:26:10;;;;;;;3.42;2.08;;;;;;;18.97;36.81;100413.41;1820150;78;20933;-68
2021/06/01 07:28:38;;;;;;;6.62;2.12;;;;;;;18.80;36.65;100413.14;1779840;80;21003;-69
2021/06/01 07:31:06;;;;;;;3.77;1.85;;;;;;;18.66;37.09;100411.69;1818058;77;21061;-69
2021/06/01 07:33:33;;;;;;;2.75;1.42;;;;;;;18.76;37.53;100409.96;1818448;79;21502;-70
2021/06/01 07:36:03;;;;;;;1.87;1.77;;;;;;;18.88;37.29;100404.11;1818363;79;20971;-70
2021/06/01 07:38:32;;;;;;;4.78;1.80;;;;;;;18.91;36.66;100395.45;1818301;79;20908;-69
2021/06/01 07:40:59;;;;;;;2.65;1.70;;;;;;;18.89;37.04;100397.86;1817506;79;21429;-70
2021/06/01 07:43:26;;;;;;;3.47;1.70;;;;;;;19.00;37.12;100388.55;1818361;77;21638;-70
2021/06/01 07:45:53;;;;;;;5.08;1.85;;;;;;;19.14;35.28;100397.94;1815176;77;20980;-69
2021/06/01 07:48:22;;;;;;;3.45;1.47;;;;;;;19.18;36.20;100396.70;1790577;79;20952;-68
2021/06/01 07:50:50;;;;;;;3.35;1.80;;;;;;;19.32;36.36;100395.02;1830873;77;21019;-69
2021/06/01 07:53:21;;;;;;;4.65;1.70;;;;;;;19.41;35.86;100392.89;1828220;77;20964;-67
2021/06/01 07:55:53;;;;;;;2.25;1.87;;;;;;;19.37;36.52;100391.97;1826932;77;21231;-69
2021/06/01 07:58:27;;;;;;;3.33;1.95;;;;;;;19.51;36.12;100392.97;1816937;77;20976;-69
2021/06/01 08:00:54;;;;;;;3.12;1.70;;;;;;;19.68;34.75;100393.61;1810055;79;21018;-69
2021/06/01 08:03:21;;;;;;;3.15;1.90;;;;;;;19.61;34.45;100393.31;1809876;78;20924;-68
2021/06/01 08:05:49;;;;;;;4.92;1.85;;;;;;;19.27;34.34;100397.20;1773891;81;20953;-68
2021/06/01 08:08:16;;;;;;;6.00;1.90;;;;;;;18.77;35.44;100397.13;1763093;81;21147;-68
2021/06/01 08:10:43;;;;;;;2.00;1.80;;;;;;;18.51;35.95;100395.30;1790547;79;20914;-67
2021/06/01 08:13:12;;;;;;;4.25;1.62;;;;;;;18.44;36.16;100395.94;1770595;81;20937;-68
2021/06/01 08:15:43;;;;;;;4.47;2.02;;;;;;;18.24;35.32;100398.44;1758847;81;21721;-69
2021/06/01 08:18:11;;;;;;;3.10;1.90;;;;;;;17.97;35.46;100404.17;1778844;79;21016;-69
2021/06/01 08:20:52;;;;;;;5.47;1.90;;;;;;;17.69;35.65;100403.86;1754798;80;21067;-68
2021/06/01 08:23:12;;;;;;;11.50;1.92;;;;;;;17.48;36.52;100404.59;1775412;80;20949;-67
2021/06/01 08:25:40;;;;;;;9.95;2.62;;;;;;;17.51;35.87;100396.45;1758776;80;20985;-68
2021/06/01 08:28:09;;;;;;;5.97;2.42;;;;;;;17.72;35.81;100399.19;1775654;80;21089;-69
2021/06/01 08:30:36;;;;;;;5.50;2.75;;;;;;;18.00;36.04;100399.11;1780831;80;20936;-68
2021/06/01 08:33:03;;;;;;;3.33;2.00;;;;;;;18.17;35.20;100407.80;1779225;80;21096;-68
2021/06/01 08:35:31;;;;;;;4.40;1.80;;;;;;;18.14;34.77;100401.95;1761393;80;20997;-69
2021/06/01 08:37:58;;;;;;;3.95;1.52;;;;;;;17.97;34.03;100409.45;1763998;80;21029;-68
2021/06/01 08:40:28;;;;;;;4.00;1.60;;;;;;;17.73;35.01;100406.61;1762770;80;21037;-69
2021/06/01 08:42:56;;;;;;;3.30;1.90;;;;;;;17.51;36.04;100406.98;1772026;80;20956;-70
2021/06/01 08:45:26;;;;;;;2.45;1.65;;;;;;;17.38;36.32;100399.69;1768161;80;20994;-69
2021/06/01 08:47:56;;;;;;;2.20;1.57;;;;;;;17.45;36.98;100402.68;1758945;80;21039;-69
2021/06/01 08:50:22;;;;;;;9.78;2.15;;;;;;;17.70;36.85;100397.64;1761482;80;21006;-69
2021/06/01 08:52:49;;;;;;;1.98;1.87;;;;;;;17.89;36.05;100403.95;1751114;80;21519;-68
2021/06/01 08:55:19;;;;;;;7.35;2.20;;;;;;;17.93;35.49;100400.11;1768069;80;21629;-68
2021/06/01 08:57:46;;;;;;;5.05;1.72;;;;;;;17.86;36.06;100401.56;1773141;80;21116;-66
2021/06/01 09:00:14;;;;;;;5.17;1.90;;;;;;;17.77;36.53;100404.94;1769243;80;20986;-68
2021/06/01 09:02:41;;;;;;;4.42;2.00;;;;;;;17.64;35.60;100405.52;1726386;83;21100;-68
2021/06/01 09:05:12;;;;;;;4.47;2.67;;;;;;;17.40;35.94;100398.25;1726467;83;21051;-66
2021/06/01 09:21:31;;;;;;;1.67;1.57;;;;;;;16.43;38.23;100399.52;1779352;80;20968;-69
2021/06/01 09:24:03;;;;;;;6.62;2.00;;;;;;;16.37;37.90;100396.06;1787073;80;21182;-68
2021/06/01 09:27:16;;;;;;;4.22;2.15;;;;;;;16.34;37.80;100393.66;1761352;80;21001;-69
2021/06/01 09:29:37;;;;;;;3.90;1.98;;;;;;;16.38;38.02;100389.85;1766372;80;21008;-69
2021/06/01 09:32:16;;;;;;;4.00;1.82;;;;;;;16.50;39.04;100381.50;1728697;81;21135;-70
2021/06/01 09:34:50;;;;;;;7.97;2.33;;;;;;;16.55;39.63;100383.31;1771100;79;20925;-70
2021/06/01 09:37:33;;;;;;;2.67;1.80;;;;;;;16.53;40.01;100387.37;1776765;80;21050;-71
2021/06/01 09:40:08;;;;;;;3.47;2.08;;;;;;;16.56;38.91;100391.08;1787164;80;21007;-67
2021/06/01 09:42:37;;;;;;;3.50;1.85;;;;;;;16.65;37.58;100378.59;1756994;80;21606;-66
2021/06/01 09:45:08;;;;;;;1.70;1.60;;;;;;;16.69;37.96;100380.99;1759474;81;20961;-66
2021/06/01 09:47:57;;;;;;;3.83;2.20;;;;;;;16.73;38.28;100381.12;1734109;81;21590;-66
2021/06/01 09:53:09;;;;;;;7.25;2.10;;;;;;;16.87;38.17;100369.89;1773403;79;21027;-66
2021/06/01 09:55:47;;;;;;;4.42;1.90;;;;;;;16.83;38.02;100368.44;1771034;79;21518;-66
2021/06/01 09:58:28;;;;;;;3.55;2.08;;;;;;;16.73;38.41;100377.18;1738372;80;20936;-66
2021/06/01 10:00:57;;;;;;;3.42;1.82;;;;;;;16.68;38.73;100409.55;1777942;79;21019;-65
2021/06/01 10:03:31;;;;;;;2.20;2.00;;;;;;;16.68;39.25;100378.84;1782087;80;21632;-66
2021/06/01 10:05:56;;;;;;;2.98;1.87;;;;;;;16.76;39.12;100365.95;1767593;79;21019;-66
2021/06/01 10:08:27;;;;;;;3.35;1.90;;;;;;;16.87;38.62;100371.20;1761504;80;21367;-66
2021/06/01 10:11:01;;;;;;;4.17;2.22;;;;;;;16.94;38.21;100367.62;1761340;81;20937;-68
2021/06/01 10:13:34;;;;;;;3.98;1.67;;;;;;;16.93;37.90;100365.47;1761004;81;20984;-67
2021/06/01 10:16:05;;;;;;;2.87;2.08;;;;;;;16.90;37.59;100363.08;1760696;81;21097;-69
2021/06/01 10:18:34;;;;;;;4.45;1.98;;;;;;;17.00;38.53;100361.89;1761749;80;20916;-71
2021/06/01 10:21:04;;;;;;;2.70;1.90;;;;;;;17.18;36.90;100358.32;1761693;81;20873;-69
2021/06/01 10:23:38;;;;;;;4.67;2.00;;;;;;;17.23;36.71;100352.19;1760736;81;21700;-72
2021/06/01 10:26:02;;;;;;;3.08;1.90;;;;;;;17.20;36.57;100372.16;1759666;81;21031;-72
2021/06/01 10:28:36;;;;;;;3.35;1.65;;;;;;;17.08;36.82;100362.63;1760897;80;21039;-71
2021/06/01 10:31:06;;;;;;;3.52;2.25;;;;;;;16.91;37.24;100370.48;1740789;81;21012;-71
2021/06/01 10:33:39;;;;;;;3.55;2.00;;;;;;;16.79;37.14;100359.63;1762092;80;20917;-69
2021/06/01 10:36:30;;;;;;;2.00;1.55;;;;;;;16.82;36.98;100358.87;1761289;81;21026;-69
2021/06/01 10:50:33;;;;;;;4.15;1.87;;;;;;;16.67;38.12;100354.81;1761263;80;21026;-71
2021/06/01 10:53:25;;;;;;;1.92;1.80;;;;;;;16.68;37.84;100360.91;1761861;80;20946;-69
2021/06/01 10:55:58;;;;;;;3.70;2.22;;;;;;;16.69;37.43;100365.22;1775338;80;21636;-68
2021/06/01 10:58:41;;;;;;;2.10;1.87;;;;;;;16.72;37.56;100363.67;1788639;79;20997;-69
2021/06/01 11:04:25;;;;;;;4.22;1.67;;;;;;;16.88;38.02;100357.09;1780074;79;21096;-70
2021/06/01 11:07:13;;;;;;;3.17;1.82;;;;;;;16.98;38.16;100357.23;1755622;80;20956;-70
2021/06/01 11:09:44;;;;;;;4.03;2.20;;;;;;;17.10;37.66;100354.97;1762629;80;21147;-70
2021/06/01 11:12:21;;;;;;;4.05;1.90;;;;;;;17.12;37.35;100353.05;1783629;79;21676;-70
2021/06/01 11:14:51;;;;;;;2.67;1.60;;;;;;;17.07;37.85;100343.84;1793117;79;21002;-69
2021/06/01 11:17:34;;;;;;;8.35;2.27;;;;;;;17.12;37.06;100367.53;1738346;82;21018;-68
2021/06/01 11:20:28;;;;;;;2.22;2.00;;;;;;;17.11;37.20;100348.75;1739773;82;21435;-72
2021/06/01 11:33:39;;;;;;;2.80;2.05;;;;;;;17.00;38.48;100352.69;1794488;79;21025;-70
2021/06/01 11:36:12;;;;;;;6.92;2.45;;;;;;;17.04;38.73;100373.02;1777217;79;21021;-71
2021/06/01 11:38:55;;;;;;;3.47;2.02;;;;;;;16.97;38.56;100355.08;1787720;79;21568;-70
2021/06/01 11:43:54;;;;;;;3.00;2.50;;;;;;;16.94;38.55;100349.21;1778142;79;21002;-69
2021/06/01 11:46:33;;;;;;;4.70;2.25;;;;;;;16.96;38.30;100344.67;1772382;79;20988;-68
2021/06/01 11:51:50;;;;;;;2.22;2.02;;;;;;;17.05;37.95;100337.38;1769519;80;21004;-70
2021/06/01 11:54:17;;;;;;;12.90;2.52;;;;;;;17.17;38.28;100341.69;1762851;80;22287;-70
2021/06/01 11:57:27;;;;;;;3.62;2.15;;;;;;;17.22;36.90;100342.14;1769648;80;20977;-69
2021/06/01 12:03:05;;;;;;;2.77;2.22;;;;;;;17.02;36.71;100346.83;1711389;80;21120;-69
2021/06/01 12:11:17;;;;;;;2.92;2.50;;;;;;;17.05;38.19;100337.86;1759956;80;21622;-69
2021/06/01 12:19:13;;;;;;;4.70;2.22;;;;;;;17.04;38.50;100344.91;1817644;77;20945;-68
2021/06/01 12:21:43;;;;;;;;;;;;;;;16.92;38.45;100339.28;1812653;79;20988;-69
2021/06/01 12:24:19;;;;;;;4.90;2.65;;;;;;;16.74;38.21;100338.93;1824778;77;20524;-69
2021/06/01 12:32:28;;;;;;;6.00;2.83;;;;;;;16.66;37.94;100329.00;1775393;79;21008;-70
2021/06/01 12:46:04;;;;;;;6.95;2.40;;;;;;;16.84;37.27;100337.72;1749515;81;21083;-68
2021/06/01 13:20:44;;;;;;;6.47;2.50;;;;;;;16.72;37.01;100318.48;1756512;80;21019;-69
2021/06/01 13:32:09;;;;;;;4.92;2.83;;;;;;;16.49;38.35;100309.69;1743691;81;20913;-68
2021/06/01 13:40:51;;;;;;;5.15;2.47;;;;;;;16.76;38.40;100323.88;1770765;80;21839;-69
2021/06/01 13:46:15;;;;;;;7.70;3.67;;;;;;;16.73;38.32;100319.33;1756565;80;21017;-69
2021/06/01 13:56:21;;;;;;;6.90;3.85;;;;;;;16.64;38.66;100308.55;1757776;80;21004;-69
2021/06/01 13:59:06;;;;;;;9.68;3.12;;;;;;;16.64;38.45;100320.39;1763953;79;21058;-68
